WetterOnline ( https://www.wetteronline.de )

Wetter aktuell Essen

Aktuelles Wetter: Essen (161m)

6-stündlich | Neueste Meldungen
Ortszeit Temperatur Wetter
Di, 05.03. 1:00 6.1° C leicht bewölkt
Mo, 04.03. 19:00 8.1° C bedeckt
Mo, 04.03. 13:00 6.9° C bedeckt
Mo, 04.03. 7:00 6.8° C bedeckt
Mo, 04.03. 1:00 7.3° C wolkig
So, 03.03. 19:00 13.6° C wolkig
So, 03.03. 13:00 15.5° C wolkenlos
So, 03.03. 7:00 9.6° C wolkig
Ortszeit Temperatur Wetter
Di, 05.03. 5:30 5.3° C bedeckt
Di, 05.03. 5:20 5.3° C Dunst
Di, 05.03. 5:10 5.4° C Dunst
Di, 05.03. 5:00 5.6° C bedeckt
Di, 05.03. 4:50 5.6° C Dunst
Di, 05.03. 4:40 5.8° C Dunst
Di, 05.03. 4:30 6.0° C bewölkt
Di, 05.03. 4:00 6.4° C bedeckt
Di, 05.03. 3:30 6.4° C bedeckt
Di, 05.03. 3:00 6.4° C bedeckt
Di, 05.03. 2:30 6.3° C bedeckt
Ortszeit Relative Feuchte Sichtweite
Di, 05.03. 1:00 94% 2.9 km
Mo, 04.03. 19:00 82% 8 km
Mo, 04.03. 13:00 94% 3.4 km
Mo, 04.03. 7:00 94% 6 km
Mo, 04.03. 1:00 93% 6 km
So, 03.03. 19:00 59% 35 km
So, 03.03. 13:00 53% 35 km
So, 03.03. 7:00 72% 30 km
Ortszeit Relative Feuchte Sichtweite
Di, 05.03. 5:30 95% 3.0 km
Di, 05.03. 5:20 95% -
Di, 05.03. 5:10 95% -
Di, 05.03. 5:00 93% 3.3 km
Di, 05.03. 4:50 93% -
Di, 05.03. 4:40 95% -
Di, 05.03. 4:30 93% 3.4 km
Di, 05.03. 4:00 91% 4.3 km
Di, 05.03. 3:30 91% 3.9 km
Di, 05.03. 3:00 91% 3.8 km
Di, 05.03. 2:30 93% 3.4 km
Ortszeit Niederschlagsmenge Niederschlagsart
Di, 05.03. 1:00 0.0 l/m2 in 6 Std. -
Mo, 04.03. 19:00 0.1 l/m2 in 12 Std. Sprühregen
Mo, 04.03. 13:00 0.1 l/m2 in 6 Std. Sprühregen
Mo, 04.03. 7:00 0.0 l/m2 in 12 Std. -
Mo, 04.03. 1:00 0.0 l/m2 in 6 Std. -
So, 03.03. 19:00 0.0 l/m2 in 12 Std. -
So, 03.03. 13:00 0.0 l/m2 in 6 Std. -
So, 03.03. 7:00 0.0 l/m2 in 12 Std. -
Ortszeit Niederschlagsmenge Niederschlagsart
Di, 05.03. 5:30 0.0 l/m2 in 30 Min -
Di, 05.03. 5:20 keine Meldung -
Di, 05.03. 5:10 keine Meldung -
Di, 05.03. 5:00 0.0 l/m2 in 1 Std. -
Di, 05.03. 4:50 keine Meldung -
Di, 05.03. 4:40 keine Meldung -
Di, 05.03. 4:30 0.0 l/m2 in 30 Min -
Di, 05.03. 4:00 0.0 l/m2 in 1 Std. -
Di, 05.03. 3:30 0.0 l/m2 in 30 Min -
Di, 05.03. 3:00 0.0 l/m2 in 1 Std. -
Di, 05.03. 2:30 0.0 l/m2 in 30 Min -
Ortszeit Stärke Spitze Richtung
km/h Bft. km/h Grad Sektor
Di, 05.03. 1:00 7 2 11 110° O
Mo, 04.03. 19:00 2 1 15 230° SW
Mo, 04.03. 13:00 7 2 18 280° W
Mo, 04.03. 7:00 7 2 25 280° W
Mo, 04.03. 1:00 7 2 25 260° W
So, 03.03. 19:00 9 2 31 30° NO
So, 03.03. 13:00 13 3 24 40° NO
So, 03.03. 7:00 4 1 32 170° S
Ortszeit Stärke Spitze Richtung
km/h Bft. km/h Grad Sektor
Di, 05.03. 5:30 7 2 14 100° O
Di, 05.03. 5:20 7 2 - 100° O
Di, 05.03. 5:10 7 2 - 110° O
Di, 05.03. 5:00 7 2 13 100° O
Di, 05.03. 4:50 7 2 - 100° O
Di, 05.03. 4:40 7 2 - 100° O
Di, 05.03. 4:30 6 1 7 110° O
Di, 05.03. 4:00 4 1 7 140° SO
Di, 05.03. 3:30 6 1 7 150° SO
Di, 05.03. 3:00 4 1 7 160° S
Di, 05.03. 2:30 4 1 7 160° S
Ortszeit Untergrenze Bedeckung Gattung
total tief tief mittel hoch
Di, 05.03. 1:00 1800 m 4/8 4/8 - - -
Mo, 04.03. 19:00 480 m 8/8 8/8 - - -
Mo, 04.03. 13:00 150 m 8/8 8/8 - - -
Mo, 04.03. 7:00 120 m 8/8 8/8 - - -
Mo, 04.03. 1:00 240 m 5/8 5/8 - - -
So, 03.03. 19:00 9000 m 7/8 0/8 - - -
So, 03.03. 13:00 - 0/8 0/8 - - -
So, 03.03. 7:00 2700 m 8/8 3/8 - - -
Ortszeit Bedeckungsgrad in Achtel und Wolkenuntergrenze
Di, 05.03. 5:30 8(6000m) 8(6600m)
Di, 05.03. 5:20 8(6000m) 8(6600m)
Di, 05.03. 5:10 8
Di, 05.03. 5:00 8(6000m) 8(6900m)
Di, 05.03. 4:50 8(6000m) 8(6900m)
Di, 05.03. 4:40 8
Di, 05.03. 4:30 7(1800m) 8(6300m)
Di, 05.03. 4:00 8(1500m)
Di, 05.03. 3:30 7(690m) 8(1500m)
Di, 05.03. 3:00 7(660m) 8(1500m)
Di, 05.03. 2:30 6(630m) 8(1800m)
Ortszeit Luftdruck NN (hPa) Tendenz (hPa in 3 Std.)
Di, 05.03. 1:00 1013 - 0,3
Mo, 04.03. 19:00 1013 + 0,6
Mo, 04.03. 13:00 1012 + 0,9
Mo, 04.03. 7:00 1010 + 2,0
Mo, 04.03. 1:00 1006 + 1,9
So, 03.03. 19:00 1002 + 1,9
So, 03.03. 13:00 1000 - 0,9
So, 03.03. 7:00 1001 + 1,0
Ortszeit Luftdruck NN (hPa) Tendenz (hPa in 3 Std.)
Di, 05.03. 5:30 1013 - 0,3
Di, 05.03. 5:20 1013 keine Meldung
Di, 05.03. 5:10 1013 keine Meldung
Di, 05.03. 5:00 1013 - 0,1
Di, 05.03. 4:50 1013 keine Meldung
Di, 05.03. 4:40 1013 keine Meldung
Di, 05.03. 4:30 1013 + 0,1
Di, 05.03. 4:00 1013 + 0,1
Di, 05.03. 3:30 1013 + 0,1
Di, 05.03. 3:00 1013 + 0,2
Di, 05.03. 2:30 1013 + 0,1
Ortszeit Schneehöhe (cm)
Di, 05.03. 1:00 0
Mo, 04.03. 19:00 0
Mo, 04.03. 13:00 0
Mo, 04.03. 7:00 0
Mo, 04.03. 1:00 0
So, 03.03. 19:00 0
So, 03.03. 13:00 0
So, 03.03. 7:00 0
Ortszeit Schneehöhe (cm)
Di, 05.03. 5:30 0
Di, 05.03. 5:20 0
Di, 05.03. 5:10 -
Di, 05.03. 5:00 0
Di, 05.03. 4:50 0
Di, 05.03. 4:40 -
Di, 05.03. 4:30 0
Di, 05.03. 4:00 0
Di, 05.03. 3:30 0
Di, 05.03. 3:00 0
Di, 05.03. 2:30 0
Link zu dieser Seite / Seite empfehlen

Das Wetter in ...